createdAt,value
2023-04-20T00:02:15.566Z,49.01
2023-04-20T00:04:42.586Z,48.48
2023-04-20T00:07:09.690Z,49.33
2023-04-20T00:09:36.331Z,49.00
2023-04-20T00:12:02.895Z,49.39
2023-04-20T00:14:29.505Z,49.66
2023-04-20T00:16:56.115Z,49.98
2023-04-20T00:19:23.171Z,49.70
2023-04-20T00:21:49.971Z,49.56
2023-04-20T00:24:16.613Z,50.13
2023-04-20T00:26:43.333Z,50.16
2023-04-20T00:29:10.046Z,50.00
2023-04-20T00:31:37.050Z,50.55
2023-04-20T00:34:03.653Z,50.73
2023-04-20T00:36:30.207Z,51.60
2023-04-20T00:38:59.100Z,51.37
2023-04-20T00:41:28.478Z,51.90
2023-04-20T00:43:55.072Z,51.23
2023-04-20T00:46:21.841Z,51.28
2023-04-20T00:48:51.777Z,52.17
2023-04-20T00:51:22.809Z,52.12
2023-04-20T00:53:49.464Z,52.61
2023-04-20T00:56:16.591Z,52.71
2023-04-20T00:58:46.131Z,53.06
2023-04-20T01:01:17.525Z,53.94
2023-04-20T01:03:46.243Z,53.60
2023-04-20T01:06:14.231Z,53.76
2023-04-20T01:08:51.338Z,54.43
2023-04-20T01:11:18.306Z,57.46
2023-04-20T01:13:45.353Z,60.45
2023-04-20T01:16:12.628Z,62.29
2023-04-20T01:18:48.295Z,65.38
2023-04-20T01:21:17.402Z,66.75
2023-04-20T01:23:44.874Z,68.43
2023-04-20T01:26:13.339Z,68.45
2023-04-20T01:28:40.174Z,69.74
2023-04-20T01:31:08.615Z,69.69
2023-04-20T01:33:35.544Z,70.02
2023-04-20T01:36:03.156Z,70.51
2023-04-20T01:38:32.860Z,71.25
2023-04-20T01:41:06.752Z,72.52
2023-04-20T01:43:35.868Z,73.12
2023-04-20T01:46:02.748Z,72.21
2023-04-20T01:48:29.467Z,73.50
2023-04-20T01:50:56.132Z,73.92
2023-04-20T01:53:23.228Z,73.47
2023-04-20T01:55:49.955Z,74.89
2023-04-20T01:58:16.836Z,75.59
2023-04-20T02:00:44.579Z,76.27
2023-04-20T02:03:11.673Z,76.67
2023-04-20T02:05:38.301Z,76.50
2023-04-20T02:08:05.618Z,76.74
2023-04-20T02:10:32.395Z,77.14
2023-04-20T02:12:59.136Z,77.44
2023-04-20T02:15:25.870Z,77.49
2023-04-20T02:17:52.828Z,78.28
2023-04-20T02:20:20.325Z,78.03
2023-04-20T02:22:47.195Z,78.22
2023-04-20T02:25:14.901Z,77.14
2023-04-20T02:27:41.852Z,77.62
2023-04-20T02:30:08.996Z,78.10
2023-04-20T02:32:35.643Z,78.13
2023-04-20T02:35:04.333Z,77.48
2023-04-20T02:37:31.266Z,77.22
2023-04-20T02:39:57.933Z,76.65
2023-04-20T02:42:26.725Z,78.33
2023-04-20T02:44:55.168Z,78.24
2023-04-20T02:47:21.727Z,77.84
2023-04-20T02:49:49.455Z,78.03
2023-04-20T02:52:16.085Z,78.11
2023-04-20T02:54:43.329Z,78.47
2023-04-20T02:57:12.158Z,78.52
2023-04-20T02:59:39.210Z,78.49
2023-04-20T03:02:19.628Z,78.89
2023-04-20T03:04:46.465Z,79.72
2023-04-20T03:07:18.488Z,79.41
2023-04-20T03:09:46.550Z,79.02
2023-04-20T03:12:13.269Z,80.09
2023-04-20T03:15:00.180Z,79.92
2023-04-20T03:17:45.485Z,80.11
2023-04-20T03:20:13.307Z,80.09
2023-04-20T03:22:39.881Z,78.57
2023-04-20T03:25:08.744Z,78.98
2023-04-20T03:27:51.764Z,79.23
2023-04-20T03:30:19.027Z,79.05
2023-04-20T03:32:50.232Z,79.40
2023-04-20T03:35:17.784Z,79.85
2023-04-20T03:37:44.642Z,80.69
2023-04-20T03:40:13.761Z,81.89
2023-04-20T03:42:41.293Z,82.97
2023-04-20T03:45:08.364Z,82.66
2023-04-20T03:47:35.087Z,82.70
2023-04-20T03:50:01.696Z,82.00
2023-04-20T03:52:28.557Z,82.87
2023-04-20T03:54:55.645Z,83.68
2023-04-20T03:57:22.175Z,83.52
2023-04-20T03:59:48.909Z,83.74
2023-04-20T04:02:22.781Z,85.64
2023-04-20T04:04:50.939Z,86.51
2023-04-20T04:07:17.588Z,85.90
2023-04-20T04:09:44.289Z,85.31
2023-04-20T04:12:12.350Z,86.57
2023-04-20T04:14:39.570Z,86.27
2023-04-20T04:17:08.127Z,88.34
2023-04-20T04:19:37.359Z,88.85
2023-04-20T04:22:04.177Z,88.55
2023-04-20T04:24:37.769Z,87.58
2023-04-20T04:27:08.677Z,89.66
2023-04-20T04:29:41.863Z,88.68
2023-04-20T04:32:13.952Z,88.95
2023-04-20T04:34:44.209Z,90.24
2023-04-20T04:37:11.871Z,89.53
2023-04-20T04:39:42.911Z,89.15
2023-04-20T04:42:17.509Z,89.27
2023-04-20T04:44:44.890Z,90.81
2023-04-20T04:47:17.943Z,90.21
2023-04-20T04:49:45.520Z,92.38
2023-04-20T04:52:13.265Z,94.02
2023-04-20T04:54:39.981Z,95.11
2023-04-20T04:57:06.805Z,95.44
2023-04-20T04:59:33.267Z,95.37
2023-04-20T05:01:59.851Z,94.51
2023-04-20T05:04:26.658Z,95.94
2023-04-20T05:06:53.292Z,97.62
2023-04-20T05:09:20.169Z,97.18
2023-04-20T05:11:46.951Z,97.92
2023-04-20T05:14:13.583Z,97.85
2023-04-20T05:16:40.232Z,98.52
2023-04-20T05:19:06.904Z,98.98
2023-04-20T05:21:33.501Z,98.51
2023-04-20T05:24:00.266Z,97.83
2023-04-20T05:26:26.822Z,98.37
2023-04-20T05:28:53.353Z,98.63
2023-04-20T05:31:20.253Z,98.31
2023-04-20T05:33:46.926Z,99.21
2023-04-20T05:36:13.523Z,97.85
2023-04-20T05:38:40.156Z,96.15
2023-04-20T05:41:06.927Z,96.49
2023-04-20T05:43:33.508Z,96.60
2023-04-20T05:46:00.259Z,96.35
2023-04-20T05:48:30.306Z,97.57
2023-04-20T05:50:57.143Z,98.19
2023-04-20T05:53:23.866Z,96.66
2023-04-20T05:55:50.470Z,97.29
2023-04-20T05:58:17.435Z,97.66
2023-04-20T06:00:44.469Z,97.63
2023-04-20T06:03:11.303Z,97.97
2023-04-20T06:05:38.278Z,97.92
2023-04-20T06:08:04.915Z,97.75
2023-04-20T06:10:34.141Z,96.53
2023-04-20T06:13:01.098Z,97.07
2023-04-20T06:15:27.945Z,96.57
2023-04-20T06:17:54.627Z,96.70
2023-04-20T06:20:21.451Z,97.18
2023-04-20T06:22:48.382Z,98.16
2023-04-20T06:25:15.766Z,98.02
2023-04-20T06:27:42.770Z,97.66
2023-04-20T06:30:09.943Z,96.83
2023-04-20T06:32:37.784Z,98.34
2023-04-20T06:35:06.139Z,96.87
2023-04-20T06:37:32.869Z,95.68
2023-04-20T06:39:59.506Z,96.34
2023-04-20T06:42:26.203Z,96.63
2023-04-20T06:44:52.784Z,97.22
2023-04-20T06:47:19.378Z,98.32
2023-04-20T06:49:46.058Z,98.15
2023-04-20T06:52:12.657Z,98.52
2023-04-20T06:54:39.218Z,98.60
2023-04-20T06:57:06.000Z,98.21
2023-04-20T06:59:32.550Z,97.64
2023-04-20T07:01:59.174Z,96.84
2023-04-20T07:04:26.130Z,95.46
2023-04-20T07:06:54.135Z,94.87
2023-04-20T07:09:22.893Z,96.71
2023-04-20T07:11:49.887Z,97.32
2023-04-20T07:14:16.497Z,97.58
2023-04-20T07:16:43.102Z,96.35
2023-04-20T07:19:09.936Z,95.65
2023-04-20T07:21:36.694Z,95.15
2023-04-20T07:24:03.613Z,95.89
2023-04-20T07:26:30.158Z,97.01
2023-04-20T07:28:56.686Z,96.22
2023-04-20T07:31:23.304Z,95.48
2023-04-20T07:33:49.839Z,95.01
2023-04-20T07:36:16.497Z,94.02
2023-04-20T07:38:42.987Z,93.51
2023-04-20T07:41:12.883Z,92.96
2023-04-20T07:43:39.362Z,93.23
2023-04-20T07:46:06.069Z,92.95
2023-04-20T07:48:34.300Z,92.83
2023-04-20T07:51:01.225Z,92.56
2023-04-20T07:53:29.660Z,91.40
2023-04-20T07:58:22.869Z,92.34
2023-04-20T08:00:49.481Z,94.13
2023-04-20T08:03:16.303Z,94.06
2023-04-20T08:05:43.156Z,93.02
2023-04-20T08:08:09.761Z,92.71
2023-04-20T08:10:36.711Z,92.14
2023-04-20T08:13:03.518Z,92.52
2023-04-20T08:15:31.438Z,92.49
2023-04-20T08:17:58.369Z,91.75
2023-04-20T08:20:25.218Z,91.00
2023-04-20T08:22:52.800Z,90.14
2023-04-20T08:25:19.472Z,89.82
2023-04-20T08:27:46.077Z,90.36
2023-04-20T08:30:12.933Z,89.90
2023-04-20T08:32:40.986Z,90.01
2023-04-20T08:35:09.562Z,89.88
2023-04-20T08:37:39.623Z,88.80
2023-04-20T08:40:06.886Z,89.14
2023-04-20T08:42:33.472Z,87.68
2023-04-20T08:45:00.063Z,88.23
2023-04-20T08:47:28.040Z,87.35
2023-04-20T08:49:55.703Z,86.44
2023-04-20T08:52:22.246Z,86.54
2023-04-20T08:54:56.019Z,86.35
2023-04-20T08:57:25.039Z,85.94
2023-04-20T08:59:51.893Z,84.22
2023-04-20T09:02:18.789Z,83.78
2023-04-20T09:04:49.131Z,85.22
2023-04-20T09:07:21.028Z,83.77
2023-04-20T09:09:59.336Z,82.45
2023-04-20T09:12:26.465Z,81.54
2023-04-20T09:14:53.956Z,81.61
2023-04-20T09:17:34.903Z,82.36
2023-04-20T09:20:01.604Z,81.94
2023-04-20T09:22:36.239Z,79.19
2023-04-20T09:25:19.981Z,78.00
2023-04-20T09:28:00.611Z,78.40
2023-04-20T09:30:38.299Z,78.31
2023-04-20T09:33:07.980Z,77.55
2023-04-20T09:35:35.173Z,77.84
2023-04-20T09:38:01.783Z,76.54
2023-04-20T09:40:28.725Z,77.21
2023-04-20T09:42:58.943Z,77.56
2023-04-20T09:45:26.072Z,76.75
2023-04-20T09:47:53.085Z,76.22
2023-04-20T09:50:29.034Z,73.22
2023-04-20T09:52:56.774Z,72.96
2023-04-20T09:55:24.613Z,71.26
2023-04-20T09:57:52.445Z,68.30
2023-04-20T10:00:19.520Z,67.14
2023-04-20T10:02:48.390Z,64.97
2023-04-20T10:05:16.799Z,63.23
2023-04-20T10:07:44.080Z,63.20
2023-04-20T10:10:14.203Z,62.49
2023-04-20T10:12:50.908Z,63.67
2023-04-20T10:15:17.785Z,63.58
2023-04-20T10:17:44.909Z,63.85
2023-04-20T10:20:26.116Z,65.49
2023-04-20T10:22:54.211Z,66.06
2023-04-20T10:25:24.506Z,65.98
2023-04-20T10:28:04.577Z,64.14
2023-04-20T10:30:34.568Z,64.54
2023-04-20T10:33:09.834Z,63.58
2023-04-20T10:35:47.263Z,59.98
2023-04-20T10:38:14.229Z,61.66
2023-04-20T10:40:40.771Z,61.46
2023-04-20T10:43:21.663Z,61.86
2023-04-20T10:45:50.021Z,61.31
2023-04-20T10:48:18.087Z,61.07
2023-04-20T10:50:45.541Z,62.54
2023-04-20T10:53:23.586Z,63.75
2023-04-20T10:56:00.104Z,63.21
2023-04-20T10:58:26.955Z,63.57
2023-04-20T11:00:57.807Z,62.52
2023-04-20T11:03:24.616Z,62.02
2023-04-20T11:05:51.889Z,62.94
2023-04-20T11:08:18.502Z,64.75
2023-04-20T11:10:45.180Z,63.94
2023-04-20T11:13:28.990Z,65.21
2023-04-20T11:15:55.580Z,62.46
2023-04-20T11:18:22.153Z,60.90
2023-04-20T11:20:56.149Z,62.06
2023-04-20T11:23:24.724Z,62.24
2023-04-20T11:25:56.129Z,62.28
2023-04-20T11:28:23.091Z,61.60
2023-04-20T11:30:51.196Z,61.31
2023-04-20T11:33:31.668Z,61.88
2023-04-20T11:35:59.528Z,62.01
2023-04-20T11:38:31.360Z,62.25
2023-04-20T11:41:00.322Z,61.22
2023-04-20T11:43:26.949Z,60.22
2023-04-20T11:45:53.699Z,60.00
2023-04-20T11:48:20.725Z,56.86
2023-04-20T11:50:47.376Z,55.75
2023-04-20T11:53:14.879Z,57.73
2023-04-20T11:55:41.875Z,57.06
2023-04-20T11:58:11.600Z,56.05
2023-04-20T12:00:38.130Z,55.13
2023-04-20T12:03:05.009Z,55.86
2023-04-20T12:05:31.737Z,56.27
2023-04-20T12:07:58.403Z,55.45
2023-04-20T12:10:25.218Z,55.73
2023-04-20T12:12:52.206Z,56.04
2023-04-20T12:15:21.816Z,56.04
2023-04-20T12:17:48.307Z,55.57
2023-04-20T12:20:15.064Z,54.89
2023-04-20T12:22:41.667Z,54.75
2023-04-20T12:25:08.605Z,55.12
2023-04-20T12:27:41.684Z,54.00
2023-04-20T12:30:09.378Z,54.00
2023-04-20T12:32:36.070Z,53.67
2023-04-20T12:35:02.762Z,55.37
2023-04-20T12:37:29.348Z,54.24
2023-04-20T12:39:55.949Z,54.66
2023-04-20T12:42:22.552Z,54.12
2023-04-20T12:44:49.128Z,52.87
2023-04-20T12:47:15.955Z,53.12
2023-04-20T12:49:42.559Z,53.60
2023-04-20T12:52:09.122Z,54.53
2023-04-20T12:54:35.679Z,54.38
2023-04-20T12:57:03.382Z,54.39
2023-04-20T12:59:30.191Z,54.52
2023-04-20T13:01:56.752Z,54.95
2023-04-20T13:04:23.901Z,55.42
2023-04-20T13:06:51.262Z,55.64
2023-04-20T13:09:17.873Z,55.61
2023-04-20T13:11:44.767Z,54.12
2023-04-20T13:14:11.472Z,53.32
2023-04-20T13:16:38.081Z,53.17
2023-04-20T13:19:04.634Z,54.26
2023-04-20T13:21:33.070Z,52.86
2023-04-20T13:23:59.709Z,53.18
2023-04-20T13:26:26.586Z,51.67
2023-04-20T13:28:54.148Z,51.62
2023-04-20T13:31:20.860Z,52.49
2023-04-20T13:33:47.530Z,52.73
2023-04-20T13:36:14.152Z,51.01
2023-04-20T13:38:40.706Z,51.84
2023-04-20T13:41:07.344Z,50.79
2023-04-20T13:43:33.905Z,50.62
2023-04-20T13:46:00.678Z,50.86
2023-04-20T13:48:27.200Z,50.08
2023-04-20T13:50:54.209Z,49.96
2023-04-20T13:53:21.925Z,49.18
2023-04-20T13:55:48.680Z,49.02
2023-04-20T13:58:15.303Z,50.12
2023-04-20T14:00:41.990Z,48.67
2023-04-20T14:03:12.075Z,49.44
2023-04-20T14:05:39.126Z,48.69
2023-04-20T14:08:06.961Z,49.17
2023-04-20T14:10:34.039Z,48.56
2023-04-20T14:13:01.588Z,49.38
2023-04-20T14:15:28.469Z,47.06
2023-04-20T14:17:55.190Z,48.19
2023-04-20T14:20:21.839Z,47.99
2023-04-20T14:22:48.410Z,48.81
2023-04-20T14:25:15.038Z,49.26
2023-04-20T14:27:41.635Z,50.05
2023-04-20T14:30:08.962Z,47.86
2023-04-20T14:32:36.050Z,47.94
2023-04-20T14:35:05.501Z,47.08
2023-04-20T14:37:32.990Z,47.79
2023-04-20T14:39:59.556Z,47.72
2023-04-20T14:42:26.171Z,47.84
2023-04-20T14:44:52.722Z,47.38
2023-04-20T14:47:19.347Z,47.13
2023-04-20T14:49:45.938Z,46.46
2023-04-20T14:52:12.508Z,46.57
2023-04-20T14:54:39.061Z,46.21
2023-04-20T14:57:05.625Z,46.09
2023-04-20T14:59:33.791Z,46.68
2023-04-20T15:02:02.894Z,47.31
2023-04-20T15:04:30.615Z,47.89
2023-04-20T15:06:57.365Z,48.07
2023-04-20T15:09:24.479Z,48.52
2023-04-20T15:11:51.115Z,48.92
2023-04-20T15:14:17.924Z,49.19
2023-04-20T15:16:44.699Z,50.14
2023-04-20T15:19:11.271Z,49.88
2023-04-20T15:21:37.809Z,49.98
2023-04-20T15:24:04.622Z,50.44
2023-04-20T15:26:31.191Z,51.08
2023-04-20T15:28:57.769Z,51.71
2023-04-20T15:31:24.479Z,51.97
2023-04-20T15:33:51.147Z,52.39
2023-04-20T15:36:19.376Z,52.74
2023-04-20T15:38:46.501Z,53.47
2023-04-20T15:41:13.181Z,52.18
2023-04-20T15:43:39.714Z,53.20
2023-04-20T15:46:06.616Z,53.25
2023-04-20T15:48:33.233Z,53.76
2023-04-20T15:50:59.956Z,54.26
2023-04-20T15:53:26.707Z,54.81
2023-04-20T15:55:53.323Z,55.17
2023-04-20T15:58:20.162Z,55.75
2023-04-20T16:00:46.925Z,56.96
2023-04-20T16:03:13.736Z,58.25
2023-04-20T16:05:40.666Z,58.50
2023-04-20T16:08:07.364Z,59.19
2023-04-20T16:10:34.115Z,59.47
2023-04-20T16:13:00.764Z,61.26
2023-04-20T16:15:27.446Z,63.62
2023-04-20T16:17:54.527Z,64.02
2023-04-20T16:20:21.290Z,64.28
2023-04-20T16:22:47.923Z,64.72
2023-04-20T16:25:22.414Z,64.90
2023-04-20T16:27:51.315Z,64.99
2023-04-20T16:30:18.544Z,64.10
2023-04-20T16:32:46.526Z,64.90
2023-04-20T16:35:13.178Z,65.65
2023-04-20T16:37:39.887Z,64.70
2023-04-20T16:40:09.197Z,65.09
2023-04-20T16:42:46.991Z,65.32
2023-04-20T16:45:19.661Z,64.24
2023-04-20T16:47:46.858Z,62.55
2023-04-20T16:50:19.410Z,61.46
2023-04-20T16:52:47.307Z,61.63
2023-04-20T16:55:14.047Z,60.97
2023-04-20T16:57:41.937Z,60.08
2023-04-20T17:00:11.837Z,60.49
2023-04-20T17:02:38.638Z,60.93
2023-04-20T17:05:06.705Z,61.80
2023-04-20T17:07:33.710Z,60.87
2023-04-20T17:10:00.474Z,61.90
2023-04-20T17:12:27.207Z,61.94
2023-04-20T17:14:55.325Z,61.73
2023-04-20T17:17:22.091Z,62.18
2023-04-20T17:19:48.766Z,63.79
2023-04-20T17:22:15.733Z,66.09
2023-04-20T17:24:42.231Z,66.73
2023-04-20T17:27:08.935Z,67.70
2023-04-20T17:29:38.281Z,68.03
2023-04-20T17:32:05.998Z,68.91
2023-04-20T17:34:33.113Z,71.13
2023-04-20T17:36:59.726Z,74.66
2023-04-20T17:39:26.618Z,77.05
2023-04-20T17:41:53.293Z,77.84
2023-04-20T17:44:20.485Z,78.15
2023-04-20T17:46:47.282Z,79.56
2023-04-20T17:49:13.833Z,81.06
2023-04-20T17:51:40.571Z,80.60
2023-04-20T17:54:07.715Z,79.43
2023-04-20T17:56:34.383Z,80.74
2023-04-20T17:59:00.961Z,80.17
2023-04-20T18:01:28.041Z,77.65
2023-04-20T18:03:54.888Z,77.17
2023-04-20T18:06:21.605Z,77.27
2023-04-20T18:08:48.128Z,77.43
2023-04-20T18:11:14.770Z,77.50
2023-04-20T18:13:41.415Z,76.93
2023-04-20T18:16:08.466Z,78.56
2023-04-20T18:18:35.137Z,78.85
2023-04-20T18:21:01.697Z,79.13
2023-04-20T18:23:29.886Z,79.00
2023-04-20T18:25:56.653Z,78.74
2023-04-20T18:28:23.393Z,79.87
2023-04-20T18:30:50.050Z,80.44
2023-04-20T18:33:16.690Z,80.73
2023-04-20T18:35:43.793Z,81.56
2023-04-20T18:38:10.313Z,81.55
2023-04-20T18:40:37.116Z,81.93
2023-04-20T18:43:03.757Z,82.12
2023-04-20T18:45:30.858Z,83.00
2023-04-20T18:47:58.184Z,82.50
2023-04-20T18:50:24.870Z,82.32
2023-04-20T18:52:51.420Z,83.23
2023-04-20T18:55:18.015Z,83.44
2023-04-20T18:57:44.568Z,82.30
2023-04-20T19:00:11.758Z,82.29
2023-04-20T19:02:38.468Z,82.73
2023-04-20T19:05:05.464Z,83.25
2023-04-20T19:07:32.043Z,84.46
2023-04-20T19:09:58.617Z,83.72
2023-04-20T19:12:25.506Z,83.96
2023-04-20T19:14:52.126Z,84.44
2023-04-20T19:17:18.765Z,83.11
2023-04-20T19:19:45.993Z,84.08
2023-04-20T19:22:12.546Z,84.27
2023-04-20T19:24:39.157Z,84.98
2023-04-20T19:27:05.760Z,84.63
2023-04-20T19:29:32.864Z,85.50
2023-04-20T19:31:59.440Z,84.55
2023-04-20T19:34:26.193Z,85.84
2023-04-20T19:36:53.745Z,86.00
2023-04-20T19:39:20.309Z,85.71
2023-04-20T19:41:47.400Z,86.89
2023-04-20T19:44:14.503Z,86.61
2023-04-20T19:46:41.288Z,86.39
2023-04-20T19:49:07.934Z,86.66
2023-04-20T19:51:34.663Z,86.86
2023-04-20T19:54:03.099Z,87.43
2023-04-20T19:56:29.835Z,87.37
2023-04-20T19:58:56.446Z,87.32
2023-04-20T20:01:23.081Z,86.59
2023-04-20T20:03:49.841Z,87.22
2023-04-20T20:06:16.478Z,88.16
2023-04-20T20:08:43.108Z,87.41
2023-04-20T20:11:09.777Z,88.27
2023-04-20T20:13:36.308Z,88.90
2023-04-20T20:16:03.723Z,88.68
2023-04-20T20:18:31.057Z,87.74
2023-04-20T20:20:57.651Z,88.93
2023-04-20T20:23:24.211Z,89.93
2023-04-20T20:25:50.973Z,89.60
2023-04-20T20:28:17.691Z,89.53
2023-04-20T20:30:45.270Z,89.70
2023-04-20T20:33:12.869Z,89.93
2023-04-20T20:35:39.948Z,91.02
2023-04-20T20:38:07.781Z,90.27
2023-04-20T20:40:35.498Z,89.33
2023-04-20T20:43:02.630Z,90.15
2023-04-20T20:45:30.342Z,90.28
2023-04-20T20:47:57.216Z,91.02
2023-04-20T20:50:24.123Z,90.57
2023-04-20T20:52:50.794Z,91.42
2023-04-20T20:55:17.624Z,91.53
2023-04-20T20:57:44.327Z,91.48
2023-04-20T21:00:11.813Z,92.16
2023-04-20T21:02:38.935Z,91.13
2023-04-20T21:05:06.206Z,92.10
2023-04-20T21:07:32.964Z,90.78
2023-04-20T21:10:00.764Z,90.31
2023-04-20T21:12:27.379Z,90.64
2023-04-20T21:14:54.198Z,90.81
2023-04-20T21:17:20.889Z,91.03
2023-04-20T21:19:47.474Z,91.45
2023-04-20T21:22:14.128Z,92.69
2023-04-20T21:24:40.799Z,92.07
2023-04-20T21:27:07.480Z,91.51
2023-04-20T21:29:34.117Z,91.98
2023-04-20T21:32:00.673Z,91.73
2023-04-20T21:34:27.476Z,92.37
2023-04-20T21:36:54.035Z,92.17
2023-04-20T21:39:20.867Z,91.04
2023-04-20T21:41:47.619Z,92.02
2023-04-20T21:44:14.215Z,91.82
2023-04-20T21:46:40.815Z,93.66
2023-04-20T21:49:07.666Z,95.31
2023-04-20T21:51:34.213Z,95.72
2023-04-20T21:54:00.759Z,95.06
2023-04-20T21:56:27.413Z,94.60
2023-04-20T21:58:54.005Z,96.08
2023-04-20T22:01:20.844Z,96.56
2023-04-20T22:03:47.735Z,95.07
2023-04-20T22:06:15.315Z,94.86
2023-04-20T22:08:41.940Z,94.51
2023-04-20T22:11:08.623Z,94.59
2023-04-20T22:13:36.150Z,95.30
2023-04-20T22:16:03.160Z,95.29
2023-04-20T22:18:29.809Z,95.31
2023-04-20T22:20:56.356Z,96.50
2023-04-20T22:23:22.931Z,96.04
2023-04-20T22:25:49.487Z,96.83
2023-04-20T22:28:16.232Z,96.96
2023-04-20T22:30:42.918Z,97.35
2023-04-20T22:33:09.867Z,98.47
2023-04-20T22:35:36.526Z,98.78
2023-04-20T22:38:03.156Z,100.00
2023-04-20T22:40:29.756Z,99.87
2023-04-20T22:42:56.325Z,100.00
2023-04-20T22:45:23.031Z,100.00
2023-04-20T22:47:49.917Z,100.00
2023-04-20T22:50:16.545Z,100.00
2023-04-20T22:52:43.227Z,99.96
2023-04-20T22:55:11.266Z,100.00
2023-04-20T22:57:38.971Z,100.00
2023-04-20T23:00:10.837Z,100.00
2023-04-20T23:02:37.994Z,100.00
2023-04-20T23:05:05.688Z,100.00
2023-04-20T23:07:33.222Z,100.00
2023-04-20T23:10:01.364Z,100.00
2023-04-20T23:12:29.436Z,100.00
2023-04-20T23:14:56.587Z,100.00
2023-04-20T23:17:23.453Z,100.00
2023-04-20T23:19:50.780Z,100.00
2023-04-20T23:22:17.318Z,100.00
2023-04-20T23:24:43.863Z,100.00
2023-04-20T23:27:10.435Z,100.00
2023-04-20T23:29:36.970Z,100.00
2023-04-20T23:32:03.877Z,100.00
2023-04-20T23:34:30.635Z,100.00
2023-04-20T23:36:57.301Z,100.00
2023-04-20T23:39:23.917Z,100.00
2023-04-20T23:41:50.534Z,100.00
2023-04-20T23:44:17.146Z,100.00
2023-04-20T23:46:43.720Z,100.00
2023-04-20T23:49:10.272Z,100.00
2023-04-20T23:51:36.807Z,100.00
2023-04-20T23:54:03.489Z,100.00
2023-04-20T23:56:30.032Z,100.00
2023-04-20T23:58:56.587Z,100.00
